sensor_id;sensor_type;location;lat;lon;timestamp;pressure;altitude;pressure_sealevel;temperature;humidity
72118;BME280;59992;47.490;8.736;2023-05-23T00:02:02;96420.76;;;14.66;84.45
72118;BME280;59992;47.490;8.736;2023-05-23T00:04:56;96418.41;;;14.61;86.61
72118;BME280;59992;47.490;8.736;2023-05-23T00:07:47;96413.33;;;14.56;87.55
72118;BME280;59992;47.490;8.736;2023-05-23T00:10:37;96413.89;;;14.52;88.93
72118;BME280;59992;47.490;8.736;2023-05-23T00:13:27;96417.73;;;14.47;88.89
72118;BME280;59992;47.490;8.736;2023-05-23T00:16:17;96424.30;;;14.43;86.47
72118;BME280;59992;47.490;8.736;2023-05-23T00:19:07;96422.77;;;14.41;84.97
72118;BME280;59992;47.490;8.736;2023-05-23T00:21:57;96424.22;;;14.40;88.97
72118;BME280;59992;47.490;8.736;2023-05-23T00:24:47;96426.91;;;14.37;89.09
72118;BME280;59992;47.490;8.736;2023-05-23T00:27:38;96425.46;;;14.37;87.79
72118;BME280;59992;47.490;8.736;2023-05-23T00:30:28;96426.23;;;14.35;86.34
72118;BME280;59992;47.490;8.736;2023-05-23T00:33:19;96426.39;;;14.31;86.93
72118;BME280;59992;47.490;8.736;2023-05-23T00:36:10;96424.96;;;14.28;85.50
72118;BME280;59992;47.490;8.736;2023-05-23T00:39:01;96427.54;;;14.25;85.12
72118;BME280;59992;47.490;8.736;2023-05-23T00:41:52;96428.46;;;14.21;85.52
72118;BME280;59992;47.490;8.736;2023-05-23T00:44:43;96435.02;;;14.16;86.80
72118;BME280;59992;47.490;8.736;2023-05-23T00:47:33;96434.27;;;14.12;89.08
72118;BME280;59992;47.490;8.736;2023-05-23T00:50:23;96435.27;;;14.09;89.36
72118;BME280;59992;47.490;8.736;2023-05-23T00:53:17;96437.12;;;14.07;89.54
72118;BME280;59992;47.490;8.736;2023-05-23T00:56:09;96429.81;;;14.00;87.84
72118;BME280;59992;47.490;8.736;2023-05-23T00:59:01;96434.02;;;14.01;88.35
72118;BME280;59992;47.490;8.736;2023-05-23T01:01:52;96435.23;;;13.97;86.63
72118;BME280;59992;47.490;8.736;2023-05-23T01:04:44;96433.34;;;13.94;86.03
72118;BME280;59992;47.490;8.736;2023-05-23T01:07:34;96432.43;;;13.91;86.82
72118;BME280;59992;47.490;8.736;2023-05-23T01:10:26;96432.14;;;13.87;87.47
72118;BME280;59992;47.490;8.736;2023-05-23T01:13:22;96430.39;;;13.84;86.75
72118;BME280;59992;47.490;8.736;2023-05-23T01:16:18;96430.63;;;13.81;89.97
72118;BME280;59992;47.490;8.736;2023-05-23T01:19:33;96425.91;;;13.79;88.59
72118;BME280;59992;47.490;8.736;2023-05-23T01:22:59;96427.81;;;13.77;87.07
72118;BME280;59992;47.490;8.736;2023-05-23T01:26:06;96426.60;;;13.74;86.94
72118;BME280;59992;47.490;8.736;2023-05-23T01:29:06;96433.67;;;13.71;90.68
72118;BME280;59992;47.490;8.736;2023-05-23T01:31:59;96432.55;;;13.66;91.98
72118;BME280;59992;47.490;8.736;2023-05-23T01:34:52;96430.95;;;13.63;89.30
72118;BME280;59992;47.490;8.736;2023-05-23T01:37:44;96434.23;;;13.60;87.73
72118;BME280;59992;47.490;8.736;2023-05-23T01:40:35;96440.02;;;13.58;92.87
72118;BME280;59992;47.490;8.736;2023-05-23T01:43:25;96440.40;;;13.57;91.00
72118;BME280;59992;47.490;8.736;2023-05-23T01:46:16;96440.02;;;13.54;88.77
72118;BME280;59992;47.490;8.736;2023-05-23T01:49:09;96439.94;;;13.51;88.46
72118;BME280;59992;47.490;8.736;2023-05-23T01:52:01;96438.43;;;13.49;90.41
72118;BME280;59992;47.490;8.736;2023-05-23T01:54:52;96438.27;;;13.46;88.99
72118;BME280;59992;47.490;8.736;2023-05-23T01:57:45;96439.95;;;13.45;92.36
72118;BME280;59992;47.490;8.736;2023-05-23T02:00:37;96443.75;;;13.44;94.89
72118;BME280;59992;47.490;8.736;2023-05-23T02:03:27;96442.39;;;13.44;92.54
72118;BME280;59992;47.490;8.736;2023-05-23T02:06:17;96438.95;;;13.42;92.88
72118;BME280;59992;47.490;8.736;2023-05-23T02:09:07;96441.47;;;13.41;93.54
72118;BME280;59992;47.490;8.736;2023-05-23T02:11:58;96438.12;;;13.39;91.01
72118;BME280;59992;47.490;8.736;2023-05-23T02:14:48;96438.88;;;13.38;89.52
72118;BME280;59992;47.490;8.736;2023-05-23T02:17:40;96439.41;;;13.37;90.74
72118;BME280;59992;47.490;8.736;2023-05-23T02:20:30;96441.77;;;13.34;94.08
72118;BME280;59992;47.490;8.736;2023-05-23T02:23:20;96439.41;;;13.34;92.83
72118;BME280;59992;47.490;8.736;2023-05-23T02:26:11;96438.57;;;13.33;93.10
72118;BME280;59992;47.490;8.736;2023-05-23T02:29:01;96434.62;;;13.29;93.40
72118;BME280;59992;47.490;8.736;2023-05-23T02:31:51;96441.39;;;13.31;94.88
72118;BME280;59992;47.490;8.736;2023-05-23T02:34:41;96446.71;;;13.31;95.17
72118;BME280;59992;47.490;8.736;2023-05-23T02:37:34;96449.08;;;13.31;94.77
72118;BME280;59992;47.490;8.736;2023-05-23T02:40:24;96450.06;;;13.31;93.15
72118;BME280;59992;47.490;8.736;2023-05-23T02:43:15;96453.11;;;13.31;91.48
72118;BME280;59992;47.490;8.736;2023-05-23T02:46:05;96455.46;;;13.31;90.22
72118;BME280;59992;47.490;8.736;2023-05-23T02:48:55;96463.60;;;13.31;90.10
72118;BME280;59992;47.490;8.736;2023-05-23T02:51:46;96460.26;;;13.31;90.38
72118;BME280;59992;47.490;8.736;2023-05-23T02:54:36;96463.45;;;13.31;90.39
72118;BME280;59992;47.490;8.736;2023-05-23T02:57:26;96465.81;;;13.31;89.43
72118;BME280;59992;47.490;8.736;2023-05-23T03:00:17;96470.22;;;13.32;91.45
72118;BME280;59992;47.490;8.736;2023-05-23T03:03:07;96472.58;;;13.30;94.52
72118;BME280;59992;47.490;8.736;2023-05-23T03:05:57;96469.30;;;13.31;93.62
72118;BME280;59992;47.490;8.736;2023-05-23T03:08:47;96467.33;;;13.33;93.94
72118;BME280;59992;47.490;8.736;2023-05-23T03:11:38;96467.64;;;13.35;93.26
72118;BME280;59992;47.490;8.736;2023-05-23T03:14:28;96466.35;;;13.37;92.60
72118;BME280;59992;47.490;8.736;2023-05-23T03:17:18;96462.77;;;13.40;91.76
72118;BME280;59992;47.490;8.736;2023-05-23T03:20:10;96461.48;;;13.43;94.53
72118;BME280;59992;47.490;8.736;2023-05-23T03:23:00;96463.99;;;13.47;96.06
72118;BME280;59992;47.490;8.736;2023-05-23T03:25:50;96462.39;;;13.51;94.22
72118;BME280;59992;47.490;8.736;2023-05-23T03:28:40;96464.90;;;13.54;93.08
72118;BME280;59992;47.490;8.736;2023-05-23T03:31:30;96465.65;;;13.57;92.95
72118;BME280;59992;47.490;8.736;2023-05-23T03:34:20;96471.66;;;13.59;92.97
72118;BME280;59992;47.490;8.736;2023-05-23T03:37:13;96477.08;;;13.63;91.19
72118;BME280;59992;47.490;8.736;2023-05-23T03:40:04;96478.89;;;13.66;92.30
72118;BME280;59992;47.490;8.736;2023-05-23T03:43:08;96480.95;;;13.65;94.10
72118;BME280;59992;47.490;8.736;2023-05-23T03:45:58;96486.35;;;13.69;93.24
72118;BME280;59992;47.490;8.736;2023-05-23T03:48:48;96484.38;;;13.71;93.08
72118;BME280;59992;47.490;8.736;2023-05-23T03:51:38;96488.86;;;13.75;95.02
72118;BME280;59992;47.490;8.736;2023-05-23T03:54:29;96488.63;;;13.79;93.96
72118;BME280;59992;47.490;8.736;2023-05-23T03:57:19;96490.84;;;13.86;92.92
72118;BME280;59992;47.490;8.736;2023-05-23T04:00:11;96491.89;;;13.93;94.31
72118;BME280;59992;47.490;8.736;2023-05-23T04:03:01;96492.72;;;13.99;92.95
72118;BME280;59992;47.490;8.736;2023-05-23T04:05:52;96495.38;;;14.07;91.71
72118;BME280;59992;47.490;8.736;2023-05-23T04:08:42;96496.41;;;14.15;92.00
72118;BME280;59992;47.490;8.736;2023-05-23T04:11:33;96501.75;;;14.21;90.86
72118;BME280;59992;47.490;8.736;2023-05-23T04:14:23;96501.37;;;14.28;91.14
72118;BME280;59992;47.490;8.736;2023-05-23T04:17:13;96503.49;;;14.34;91.26
72118;BME280;59992;47.490;8.736;2023-05-23T04:20:05;96505.39;;;14.40;91.00
72118;BME280;59992;47.490;8.736;2023-05-23T04:22:56;96509.55;;;14.45;91.98
72118;BME280;59992;47.490;8.736;2023-05-23T04:25:46;96507.09;;;14.53;91.65
72118;BME280;59992;47.490;8.736;2023-05-23T04:28:37;96511.79;;;14.61;91.34
72118;BME280;59992;47.490;8.736;2023-05-23T04:31:28;96507.95;;;14.69;92.29
72118;BME280;59992;47.490;8.736;2023-05-23T04:34:18;96512.95;;;14.78;93.13
72118;BME280;59992;47.490;8.736;2023-05-23T04:37:10;96510.22;;;14.90;91.08
72118;BME280;59992;47.490;8.736;2023-05-23T04:40:00;96511.21;;;15.02;90.12
72118;BME280;59992;47.490;8.736;2023-05-23T04:42:51;96512.92;;;15.12;90.08
72118;BME280;59992;47.490;8.736;2023-05-23T04:45:42;96512.58;;;15.20;89.72
72118;BME280;59992;47.490;8.736;2023-05-23T04:48:34;96513.67;;;15.26;89.98
72118;BME280;59992;47.490;8.736;2023-05-23T04:51:25;96516.23;;;15.31;90.17
72118;BME280;59992;47.490;8.736;2023-05-23T04:54:15;96517.42;;;15.36;90.68
72118;BME280;59992;47.490;8.736;2023-05-23T04:57:05;96527.18;;;15.42;89.72
72118;BME280;59992;47.490;8.736;2023-05-23T04:59:56;96531.80;;;15.49;90.09
72118;BME280;59992;47.490;8.736;2023-05-23T05:02:46;96532.69;;;15.55;89.05
72118;BME280;59992;47.490;8.736;2023-05-23T05:05:36;96533.77;;;15.61;88.76
72118;BME280;59992;47.490;8.736;2023-05-23T05:08:26;96534.41;;;15.67;89.08
72118;BME280;59992;47.490;8.736;2023-05-23T05:11:16;96534.97;;;15.75;88.49
72118;BME280;59992;47.490;8.736;2023-05-23T05:14:06;96532.38;;;15.84;87.35
72118;BME280;59992;47.490;8.736;2023-05-23T05:16:56;96527.95;;;15.94;87.48
72118;BME280;59992;47.490;8.736;2023-05-23T05:19:47;96525.16;;;16.06;87.56
72118;BME280;59992;47.490;8.736;2023-05-23T05:22:37;96523.97;;;16.18;87.38
72118;BME280;59992;47.490;8.736;2023-05-23T05:25:29;96524.47;;;16.31;87.91
72118;BME280;59992;47.490;8.736;2023-05-23T05:28:20;96532.21;;;16.52;86.41
72118;BME280;59992;47.490;8.736;2023-05-23T05:31:10;96525.27;;;16.79;85.48
72118;BME280;59992;47.490;8.736;2023-05-23T05:34:02;96525.73;;;17.03;84.43
72118;BME280;59992;47.490;8.736;2023-05-23T05:36:53;96528.38;;;17.28;82.81
72118;BME280;59992;47.490;8.736;2023-05-23T05:39:44;96535.48;;;17.57;82.19
72118;BME280;59992;47.490;8.736;2023-05-23T05:42:34;96541.02;;;17.82;81.89
72118;BME280;59992;47.490;8.736;2023-05-23T05:45:24;96532.92;;;18.08;80.27
72118;BME280;59992;47.490;8.736;2023-05-23T05:48:14;96535.52;;;18.30;78.05
72118;BME280;59992;47.490;8.736;2023-05-23T05:51:05;96536.46;;;18.48;77.24
72118;BME280;59992;47.490;8.736;2023-05-23T05:53:55;96535.72;;;18.86;75.37
72118;BME280;59992;47.490;8.736;2023-05-23T05:56:45;96541.27;;;19.40;74.32
72118;BME280;59992;47.490;8.736;2023-05-23T05:59:35;96541.23;;;20.05;72.03
72118;BME280;59992;47.490;8.736;2023-05-23T06:02:25;96542.80;;;20.33;70.68
72118;BME280;59992;47.490;8.736;2023-05-23T06:05:15;96543.85;;;20.57;68.34
72118;BME280;59992;47.490;8.736;2023-05-23T06:08:06;96549.50;;;20.96;70.59
72118;BME280;59992;47.490;8.736;2023-05-23T06:10:57;96553.33;;;21.75;66.39
72118;BME280;59992;47.490;8.736;2023-05-23T06:13:47;96552.70;;;22.58;64.44
72118;BME280;59992;47.490;8.736;2023-05-23T06:16:37;96548.33;;;23.20;58.63
72118;BME280;59992;47.490;8.736;2023-05-23T06:19:27;96546.30;;;23.82;60.16
72118;BME280;59992;47.490;8.736;2023-05-23T06:22:18;96547.91;;;24.29;55.47
72118;BME280;59992;47.490;8.736;2023-05-23T06:25:09;96550.36;;;24.60;54.96
72118;BME280;59992;47.490;8.736;2023-05-23T06:27:59;96553.77;;;25.09;54.00
72118;BME280;59992;47.490;8.736;2023-05-23T06:30:49;96552.05;;;25.42;51.51
72118;BME280;59992;47.490;8.736;2023-05-23T06:33:39;96556.47;;;25.39;55.24
72118;BME280;59992;47.490;8.736;2023-05-23T06:36:30;96564.88;;;25.17;52.60
72118;BME280;59992;47.490;8.736;2023-05-23T06:39:21;96564.00;;;24.57;52.61
72118;BME280;59992;47.490;8.736;2023-05-23T06:42:11;96562.47;;;24.13;54.16
72118;BME280;59992;47.490;8.736;2023-05-23T06:45:01;96563.77;;;23.92;54.81
72118;BME280;59992;47.490;8.736;2023-05-23T06:47:51;96564.65;;;23.91;55.38
72118;BME280;59992;47.490;8.736;2023-05-23T06:50:41;96562.63;;;24.27;54.95
72118;BME280;59992;47.490;8.736;2023-05-23T06:53:32;96562.95;;;24.59;54.56
72118;BME280;59992;47.490;8.736;2023-05-23T06:56:22;96561.88;;;24.50;53.61
72118;BME280;59992;47.490;8.736;2023-05-23T06:59:12;96563.83;;;24.50;55.07
72118;BME280;59992;47.490;8.736;2023-05-23T07:02:03;96565.14;;;24.40;54.17
72118;BME280;59992;47.490;8.736;2023-05-23T07:04:53;96566.54;;;24.26;53.74
72118;BME280;59992;47.490;8.736;2023-05-23T07:07:44;96568.15;;;24.07;54.70
72118;BME280;59992;47.490;8.736;2023-05-23T07:10:34;96567.59;;;23.81;54.66
72118;BME280;59992;47.490;8.736;2023-05-23T07:13:24;96572.73;;;23.47;56.10
72118;BME280;59992;47.490;8.736;2023-05-23T07:16:14;96572.58;;;23.10;57.59
72118;BME280;59992;47.490;8.736;2023-05-23T07:19:05;96576.48;;;22.85;57.30
72118;BME280;59992;47.490;8.736;2023-05-23T07:21:55;96580.73;;;22.56;58.11
72118;BME280;59992;47.490;8.736;2023-05-23T07:24:45;96582.95;;;22.33;59.09
72118;BME280;59992;47.490;8.736;2023-05-23T07:27:35;96589.29;;;22.17;58.79
72118;BME280;59992;47.490;8.736;2023-05-23T07:30:25;96589.89;;;22.00;58.94
72118;BME280;59992;47.490;8.736;2023-05-23T07:33:15;96592.98;;;21.82;59.89
72118;BME280;59992;47.490;8.736;2023-05-23T07:36:06;96597.00;;;21.58;61.65
72118;BME280;59992;47.490;8.736;2023-05-23T07:38:57;96599.31;;;21.26;62.32
72118;BME280;59992;47.490;8.736;2023-05-23T07:41:47;96602.91;;;21.08;61.38
72118;BME280;59992;47.490;8.736;2023-05-23T07:44:39;96605.39;;;20.87;61.06
72118;BME280;59992;47.490;8.736;2023-05-23T07:47:30;96607.64;;;20.69;61.80
72118;BME280;59992;47.490;8.736;2023-05-23T07:50:20;96608.44;;;20.53;62.90
72118;BME280;59992;47.490;8.736;2023-05-23T07:53:10;96608.17;;;20.36;62.80
72118;BME280;59992;47.490;8.736;2023-05-23T07:56:00;96605.77;;;20.21;63.86
72118;BME280;59992;47.490;8.736;2023-05-23T07:58:50;96607.52;;;20.09;64.22
72118;BME280;59992;47.490;8.736;2023-05-23T08:01:40;96608.24;;;19.97;64.35
72118;BME280;59992;47.490;8.736;2023-05-23T08:04:32;96609.05;;;19.89;64.99
72118;BME280;59992;47.490;8.736;2023-05-23T08:07:22;96607.15;;;19.85;65.24
72118;BME280;59992;47.490;8.736;2023-05-23T08:10:12;96608.52;;;19.78;66.79
72118;BME280;59992;47.490;8.736;2023-05-23T08:13:02;96605.73;;;19.71;66.27
72118;BME280;59992;47.490;8.736;2023-05-23T08:15:54;96604.30;;;19.70;64.74
72118;BME280;59992;47.490;8.736;2023-05-23T08:18:44;96603.92;;;19.70;66.05
72118;BME280;59992;47.490;8.736;2023-05-23T08:21:35;96601.52;;;19.68;67.86
72118;BME280;59992;47.490;8.736;2023-05-23T08:24:25;96599.45;;;19.67;68.57
72118;BME280;59992;47.490;8.736;2023-05-23T08:27:17;96600.23;;;19.68;68.95
72118;BME280;59992;47.490;8.736;2023-05-23T08:30:10;96600.16;;;19.70;69.41
72118;BME280;59992;47.490;8.736;2023-05-23T08:33:00;96605.27;;;19.76;68.97
72118;BME280;59992;47.490;8.736;2023-05-23T08:35:52;96607.20;;;19.86;68.99
72118;BME280;59992;47.490;8.736;2023-05-23T08:38:42;96610.23;;;19.98;68.26
72118;BME280;59992;47.490;8.736;2023-05-23T08:41:33;96608.79;;;20.10;68.73
72118;BME280;59992;47.490;8.736;2023-05-23T08:44:24;96608.20;;;20.23;66.83
72118;BME280;59992;47.490;8.736;2023-05-23T08:47:16;96611.42;;;20.33;65.33
72118;BME280;59992;47.490;8.736;2023-05-23T08:50:11;96618.71;;;20.45;65.87
72118;BME280;59992;47.490;8.736;2023-05-23T08:53:03;96615.35;;;20.56;64.95
72118;BME280;59992;47.490;8.736;2023-05-23T08:55:57;96616.45;;;20.70;64.66
72118;BME280;59992;47.490;8.736;2023-05-23T08:58:50;96611.16;;;20.90;64.64
72118;BME280;59992;47.490;8.736;2023-05-23T09:01:43;96609.67;;;21.14;62.66
72118;BME280;59992;47.490;8.736;2023-05-23T09:04:35;96614.49;;;21.45;63.12
72118;BME280;59992;47.490;8.736;2023-05-23T09:07:25;96614.73;;;21.79;62.29
72118;BME280;59992;47.490;8.736;2023-05-23T09:10:16;96605.45;;;22.20;60.90
72118;BME280;59992;47.490;8.736;2023-05-23T09:13:08;96608.08;;;23.03;59.91
72118;BME280;59992;47.490;8.736;2023-05-23T09:16:03;96602.27;;;23.79;57.93
72118;BME280;59992;47.490;8.736;2023-05-23T09:18:54;96598.89;;;24.37;55.96
72118;BME280;59992;47.490;8.736;2023-05-23T09:21:45;96599.78;;;24.84;52.73
72118;BME280;59992;47.490;8.736;2023-05-23T09:24:36;96597.79;;;25.34;50.41
72118;BME280;59992;47.490;8.736;2023-05-23T09:27:26;96593.59;;;25.65;48.75
72118;BME280;59992;47.490;8.736;2023-05-23T09:30:17;96595.77;;;26.04;50.53
72118;BME280;59992;47.490;8.736;2023-05-23T09:33:07;96591.39;;;26.45;49.23
72118;BME280;59992;47.490;8.736;2023-05-23T09:35:57;96588.54;;;26.88;47.97
72118;BME280;59992;47.490;8.736;2023-05-23T09:38:48;96582.73;;;26.93;43.25
72118;BME280;59992;47.490;8.736;2023-05-23T09:41:41;96582.69;;;26.84;45.06
72118;BME280;59992;47.490;8.736;2023-05-23T09:44:31;96584.54;;;26.75;44.66
72118;BME280;59992;47.490;8.736;2023-05-23T09:47:34;96582.16;;;26.83;44.78
72118;BME280;59992;47.490;8.736;2023-05-23T09:50:25;96579.53;;;26.85;44.28
72118;BME280;59992;47.490;8.736;2023-05-23T09:53:19;96577.74;;;26.87;43.86
72118;BME280;59992;47.490;8.736;2023-05-23T09:56:10;96578.95;;;26.64;44.26
72118;BME280;59992;47.490;8.736;2023-05-23T09:59:01;96576.33;;;26.60;45.20
72118;BME280;59992;47.490;8.736;2023-05-23T10:01:51;96577.70;;;26.48;45.98
72118;BME280;59992;47.490;8.736;2023-05-23T10:04:45;96577.28;;;26.52;46.85
72118;BME280;59992;47.490;8.736;2023-05-23T10:07:37;96573.19;;;26.59;46.47
72118;BME280;59992;47.490;8.736;2023-05-23T10:10:30;96573.87;;;26.75;45.43
72118;BME280;59992;47.490;8.736;2023-05-23T10:13:21;96570.20;;;26.68;44.58
72118;BME280;59992;47.490;8.736;2023-05-23T10:16:17;96566.88;;;26.53;44.50
72118;BME280;59992;47.490;8.736;2023-05-23T10:19:14;96569.15;;;26.41;44.61
72118;BME280;59992;47.490;8.736;2023-05-23T10:22:07;96563.27;;;26.34;43.58
72118;BME280;59992;47.490;8.736;2023-05-23T10:24:58;96560.95;;;26.21;43.21
72118;BME280;59992;47.490;8.736;2023-05-23T10:27:52;96554.98;;;26.00;41.81
72118;BME280;59992;47.490;8.736;2023-05-23T10:30:46;96552.70;;;25.73;44.41
72118;BME280;59992;47.490;8.736;2023-05-23T10:33:42;96550.20;;;25.55;44.30
72118;BME280;59992;47.490;8.736;2023-05-23T10:36:39;96545.47;;;25.49;44.54
72118;BME280;59992;47.490;8.736;2023-05-23T10:39:48;96546.35;;;25.45;46.99
72118;BME280;59992;47.490;8.736;2023-05-23T10:42:51;96546.12;;;25.36;48.26
72118;BME280;59992;47.490;8.736;2023-05-23T10:45:43;96543.10;;;25.14;46.16
72118;BME280;59992;47.490;8.736;2023-05-23T10:48:39;96541.31;;;25.14;46.94
72118;BME280;59992;47.490;8.736;2023-05-23T10:51:39;96534.20;;;25.11;45.67
72118;BME280;59992;47.490;8.736;2023-05-23T10:54:35;96537.05;;;24.94;45.95
72118;BME280;59992;47.490;8.736;2023-05-23T10:57:29;96534.08;;;24.79;45.76
72118;BME280;59992;47.490;8.736;2023-05-23T11:00:23;96529.89;;;24.72;46.60
72118;BME280;59992;47.490;8.736;2023-05-23T11:03:13;96528.06;;;24.65;46.19
72118;BME280;59992;47.490;8.736;2023-05-23T11:06:06;96523.13;;;24.67;48.40
72118;BME280;59992;47.490;8.736;2023-05-23T11:09:02;96521.98;;;24.75;46.33
72118;BME280;59992;47.490;8.736;2023-05-23T11:12:00;96520.27;;;24.92;46.65
72118;BME280;59992;47.490;8.736;2023-05-23T11:14:54;96513.46;;;25.02;45.95
72118;BME280;59992;47.490;8.736;2023-05-23T11:17:56;96503.43;;;25.10;47.12
72118;BME280;59992;47.490;8.736;2023-05-23T11:20:49;96501.91;;;25.28;47.02
72118;BME280;59992;47.490;8.736;2023-05-23T11:23:43;96503.34;;;25.46;45.52
72118;BME280;59992;47.490;8.736;2023-05-23T11:26:33;96504.84;;;25.47;44.34
72118;BME280;59992;47.490;8.736;2023-05-23T11:29:23;96504.96;;;25.61;43.79
72118;BME280;59992;47.490;8.736;2023-05-23T11:32:14;96500.86;;;25.70;42.79
72118;BME280;59992;47.490;8.736;2023-05-23T11:35:04;96503.63;;;25.72;44.23
72118;BME280;59992;47.490;8.736;2023-05-23T11:37:57;96502.79;;;25.81;43.47
72118;BME280;59992;47.490;8.736;2023-05-23T11:40:47;96508.72;;;25.92;42.06
72118;BME280;59992;47.490;8.736;2023-05-23T11:43:37;96507.40;;;26.00;42.63
72118;BME280;59992;47.490;8.736;2023-05-23T11:47:00;96504.34;;;25.98;42.65
72118;BME280;59992;47.490;8.736;2023-05-23T11:49:53;96501.45;;;25.82;42.83
72118;BME280;59992;47.490;8.736;2023-05-23T11:52:44;96489.76;;;25.54;43.93
72118;BME280;59992;47.490;8.736;2023-05-23T11:55:53;96498.95;;;25.50;43.78
72118;BME280;59992;47.490;8.736;2023-05-23T11:58:51;96501.70;;;25.56;43.75
72118;BME280;59992;47.490;8.736;2023-05-23T12:01:41;96505.45;;;25.63;43.16
72118;BME280;59992;47.490;8.736;2023-05-23T12:04:32;96503.95;;;25.62;44.47
72118;BME280;59992;47.490;8.736;2023-05-23T12:07:23;96503.61;;;25.51;44.48
72118;BME280;59992;47.490;8.736;2023-05-23T12:10:14;96500.05;;;25.45;44.12
72118;BME280;59992;47.490;8.736;2023-05-23T12:13:06;96503.23;;;25.41;44.31
72118;BME280;59992;47.490;8.736;2023-05-23T12:15:58;96501.89;;;25.15;46.56
72118;BME280;59992;47.490;8.736;2023-05-23T12:18:48;96514.27;;;24.80;45.74
72118;BME280;59992;47.490;8.736;2023-05-23T12:21:46;96518.64;;;24.54;44.41
72118;BME280;59992;47.490;8.736;2023-05-23T12:24:43;96526.88;;;24.43;43.85
72118;BME280;59992;47.490;8.736;2023-05-23T12:27:35;96526.44;;;24.28;43.58
72118;BME280;59992;47.490;8.736;2023-05-23T12:30:25;96523.75;;;24.27;42.69
72118;BME280;59992;47.490;8.736;2023-05-23T12:33:19;96527.13;;;24.18;42.53
72118;BME280;59992;47.490;8.736;2023-05-23T12:36:09;96522.69;;;24.02;42.58
72118;BME280;59992;47.490;8.736;2023-05-23T12:39:05;96521.63;;;23.68;42.43
72118;BME280;59992;47.490;8.736;2023-05-23T12:42:07;96529.73;;;23.41;43.93
72118;BME280;59992;47.490;8.736;2023-05-23T12:44:58;96521.38;;;23.37;43.71
72118;BME280;59992;47.490;8.736;2023-05-23T12:47:49;96520.22;;;23.30;44.40
72118;BME280;59992;47.490;8.736;2023-05-23T12:50:39;96519.75;;;23.39;43.68
72118;BME280;59992;47.490;8.736;2023-05-23T12:53:29;96523.23;;;23.41;44.04
72118;BME280;59992;47.490;8.736;2023-05-23T12:56:20;96521.40;;;23.42;43.76
72118;BME280;59992;47.490;8.736;2023-05-23T12:59:11;96525.79;;;23.39;43.45
72118;BME280;59992;47.490;8.736;2023-05-23T13:02:01;96536.84;;;23.37;43.62
72118;BME280;59992;47.490;8.736;2023-05-23T13:04:52;96540.81;;;23.25;43.70
72118;BME280;59992;47.490;8.736;2023-05-23T13:07:42;96540.86;;;23.09;45.35
72118;BME280;59992;47.490;8.736;2023-05-23T13:10:33;96535.73;;;22.97;46.14
72118;BME280;59992;47.490;8.736;2023-05-23T13:13:23;96534.67;;;22.86;46.57
72118;BME280;59992;47.490;8.736;2023-05-23T13:16:13;96540.17;;;22.85;46.76
72118;BME280;59992;47.490;8.736;2023-05-23T13:19:04;96546.84;;;22.74;47.46
72118;BME280;59992;47.490;8.736;2023-05-23T13:21:54;96550.23;;;22.63;48.82
72118;BME280;59992;47.490;8.736;2023-05-23T13:24:44;96546.64;;;22.55;47.97
72118;BME280;59992;47.490;8.736;2023-05-23T13:27:35;96542.90;;;22.44;48.48
72118;BME280;59992;47.490;8.736;2023-05-23T13:30:25;96545.74;;;22.35;48.13
72118;BME280;59992;47.490;8.736;2023-05-23T13:33:15;96537.77;;;22.27;48.29
72118;BME280;59992;47.490;8.736;2023-05-23T13:36:06;96530.60;;;22.25;48.43
72118;BME280;59992;47.490;8.736;2023-05-23T13:38:56;96523.35;;;22.22;48.78
72118;BME280;59992;47.490;8.736;2023-05-23T13:41:46;96527.66;;;22.16;48.27
72118;BME280;59992;47.490;8.736;2023-05-23T13:44:37;96529.93;;;22.10;48.55
72118;BME280;59992;47.490;8.736;2023-05-23T13:47:27;96534.23;;;22.04;49.23
72118;BME280;59992;47.490;8.736;2023-05-23T13:50:18;96535.04;;;21.98;50.42
72118;BME280;59992;47.490;8.736;2023-05-23T13:53:08;96532.94;;;21.96;51.01
72118;BME280;59992;47.490;8.736;2023-05-23T13:56:03;96533.85;;;21.94;51.08
72118;BME280;59992;47.490;8.736;2023-05-23T13:58:53;96535.70;;;21.97;50.54
72118;BME280;59992;47.490;8.736;2023-05-23T14:01:43;96537.00;;;22.09;51.07
72118;BME280;59992;47.490;8.736;2023-05-23T14:04:34;96537.05;;;22.18;51.77
72118;BME280;59992;47.490;8.736;2023-05-23T14:07:24;96538.50;;;22.31;51.59
72118;BME280;59992;47.490;8.736;2023-05-23T14:10:15;96538.23;;;22.34;51.54
72118;BME280;59992;47.490;8.736;2023-05-23T14:13:06;96535.85;;;22.34;51.35
72118;BME280;59992;47.490;8.736;2023-05-23T14:15:57;96536.64;;;22.33;52.28
72118;BME280;59992;47.490;8.736;2023-05-23T14:18:47;96544.67;;;22.25;51.15
72118;BME280;59992;47.490;8.736;2023-05-23T14:21:37;96545.76;;;22.24;51.58
72118;BME280;59992;47.490;8.736;2023-05-23T14:24:27;96548.23;;;22.19;52.05
72118;BME280;59992;47.490;8.736;2023-05-23T14:27:17;96546.60;;;22.17;52.71
72118;BME280;59992;47.490;8.736;2023-05-23T14:30:09;96548.58;;;22.11;51.62
72118;BME280;59992;47.490;8.736;2023-05-23T14:33:00;96549.10;;;22.13;51.86
72118;BME280;59992;47.490;8.736;2023-05-23T14:35:50;96544.20;;;22.12;51.45
72118;BME280;59992;47.490;8.736;2023-05-23T14:38:40;96547.25;;;22.11;51.84
72118;BME280;59992;47.490;8.736;2023-05-23T14:41:33;96549.18;;;22.06;52.27
72118;BME280;59992;47.490;8.736;2023-05-23T14:44:23;96551.20;;;22.09;51.73
72118;BME280;59992;47.490;8.736;2023-05-23T14:47:13;96541.80;;;22.15;52.11
72118;BME280;59992;47.490;8.736;2023-05-23T14:50:04;96540.29;;;22.23;53.22
72118;BME280;59992;47.490;8.736;2023-05-23T14:52:55;96542.32;;;22.32;53.06
72118;BME280;59992;47.490;8.736;2023-05-23T14:55:45;96537.34;;;22.42;52.63
72118;BME280;59992;47.490;8.736;2023-05-23T14:58:35;96534.35;;;22.53;52.57
72118;BME280;59992;47.490;8.736;2023-05-23T15:01:28;96531.61;;;22.68;52.53
72118;BME280;59992;47.490;8.736;2023-05-23T15:04:18;96529.98;;;22.73;52.84
72118;BME280;59992;47.490;8.736;2023-05-23T15:07:08;96532.19;;;22.71;52.21
72118;BME280;59992;47.490;8.736;2023-05-23T15:09:58;96527.63;;;22.69;51.85